Terminal Aerodrome Forecast
Issued by NWS

Home | Current Version | Previous Version | Text Only | Print | Product List | Glossary On
Versions: 1 2 3 4 5 6 7 8 9 10 11 12 13 14 15 16 17
000
FTAK31 PAJN 301200 AAA
TAFAWG
TAF AMD
PAWG 301229Z 3012/3112 VRB03KT 6SM BR SCT002
      TEMPO 3012/3016 2SM BR BKN002
     FM301600 VRB04KT 6SM BR BKN025
     FM310000 VRB05KT P6SM SKC
      AMD LTD TO CLD VIS AND WIND 3012/3015=

USA.gov is the U.S. government's official web portal to all federal, state and local government web resources and services.